sensor_id;sensor_type;location;lat;lon;timestamp;pressure;altitude;pressure_sealevel;temperature;humidity
75290;BME280;63883;48.996;20.804;2023-08-07T00:00:43;95352.00;;;14.38;100.00
75290;BME280;63883;48.996;20.804;2023-08-07T00:03:28;95355.75;;;14.33;100.00
75290;BME280;63883;48.996;20.804;2023-08-07T00:05:54;95342.94;;;14.33;100.00
75290;BME280;63883;48.996;20.804;2023-08-07T00:08:20;95358.66;;;14.41;100.00
75290;BME280;63883;48.996;20.804;2023-08-07T00:10:46;95360.06;;;14.32;100.00
75290;BME280;63883;48.996;20.804;2023-08-07T00:13:13;95348.78;;;14.21;100.00
75290;BME280;63883;48.996;20.804;2023-08-07T00:15:39;95351.34;;;14.21;100.00
75290;BME280;63883;48.996;20.804;2023-08-07T00:18:05;95362.72;;;14.31;100.00
75290;BME280;63883;48.996;20.804;2023-08-07T00:20:31;95369.41;;;14.33;100.00
75290;BME280;63883;48.996;20.804;2023-08-07T00:22:56;95363.53;;;14.31;100.00
75290;BME280;63883;48.996;20.804;2023-08-07T00:25:22;95363.78;;;14.27;100.00
75290;BME280;63883;48.996;20.804;2023-08-07T00:27:48;95363.19;;;14.23;100.00
75290;BME280;63883;48.996;20.804;2023-08-07T00:30:14;95376.09;;;14.22;100.00
75290;BME280;63883;48.996;20.804;2023-08-07T00:32:39;95374.19;;;14.25;100.00
75290;BME280;63883;48.996;20.804;2023-08-07T00:35:06;95372.78;;;14.20;100.00
75290;BME280;63883;48.996;20.804;2023-08-07T00:37:33;95367.94;;;14.15;100.00
75290;BME280;63883;48.996;20.804;2023-08-07T00:39:59;95371.50;;;14.13;100.00
75290;BME280;63883;48.996;20.804;2023-08-07T00:42:25;95369.41;;;14.05;100.00
75290;BME280;63883;48.996;20.804;2023-08-07T00:44:50;95379.41;;;13.95;100.00
75290;BME280;63883;48.996;20.804;2023-08-07T00:47:16;95373.53;;;13.93;100.00
75290;BME280;63883;48.996;20.804;2023-08-07T00:49:42;95371.81;;;13.94;100.00
75290;BME280;63883;48.996;20.804;2023-08-07T00:52:07;95377.59;;;13.97;100.00
75290;BME280;63883;48.996;20.804;2023-08-07T00:54:34;95374.81;;;14.00;100.00
75290;BME280;63883;48.996;20.804;2023-08-07T00:57:11;95374.72;;;14.02;100.00
75290;BME280;63883;48.996;20.804;2023-08-07T00:59:38;95384.34;;;13.98;100.00
75290;BME280;63883;48.996;20.804;2023-08-07T01:02:05;95390.94;;;13.88;100.00
75290;BME280;63883;48.996;20.804;2023-08-07T01:04:31;95393.06;;;13.82;100.00
75290;BME280;63883;48.996;20.804;2023-08-07T01:06:57;95388.91;;;13.79;100.00
75290;BME280;63883;48.996;20.804;2023-08-07T01:09:23;95390.75;;;13.77;100.00
75290;BME280;63883;48.996;20.804;2023-08-07T01:11:53;95394.88;;;13.80;100.00
75290;BME280;63883;48.996;20.804;2023-08-07T01:14:37;95401.66;;;13.81;100.00
75290;BME280;63883;48.996;20.804;2023-08-07T01:17:15;95410.16;;;13.81;100.00
75290;BME280;63883;48.996;20.804;2023-08-07T01:19:41;95412.91;;;13.78;100.00
75290;BME280;63883;48.996;20.804;2023-08-07T01:22:11;95408.22;;;13.85;100.00
75290;BME280;63883;48.996;20.804;2023-08-07T01:24:39;95411.44;;;13.88;100.00
75290;BME280;63883;48.996;20.804;2023-08-07T01:27:18;95417.03;;;13.81;100.00
75290;BME280;63883;48.996;20.804;2023-08-07T01:30:08;95422.91;;;13.83;100.00
75290;BME280;63883;48.996;20.804;2023-08-07T01:35:14;95417.03;;;13.81;100.00
75290;BME280;63883;48.996;20.804;2023-08-07T01:37:42;95421.25;;;13.82;100.00
75290;BME280;63883;48.996;20.804;2023-08-07T01:40:10;95417.78;;;13.83;100.00
75290;BME280;63883;48.996;20.804;2023-08-07T01:42:36;95414.94;;;13.87;100.00
75290;BME280;63883;48.996;20.804;2023-08-07T01:45:04;95407.78;;;13.92;100.00
75290;BME280;63883;48.996;20.804;2023-08-07T01:47:30;95400.75;;;13.96;100.00
75290;BME280;63883;48.996;20.804;2023-08-07T01:49:56;95405.41;;;14.03;100.00
75290;BME280;63883;48.996;20.804;2023-08-07T01:52:22;95400.28;;;14.03;100.00
75290;BME280;63883;48.996;20.804;2023-08-07T01:54:47;95401.75;;;13.93;100.00
75290;BME280;63883;48.996;20.804;2023-08-07T01:57:13;95402.13;;;14.01;100.00
75290;BME280;63883;48.996;20.804;2023-08-07T01:59:39;95399.09;;;14.09;100.00
75290;BME280;63883;48.996;20.804;2023-08-07T02:02:05;95400.81;;;13.94;100.00
75290;BME280;63883;48.996;20.804;2023-08-07T02:04:31;95411.81;;;13.82;100.00
75290;BME280;63883;48.996;20.804;2023-08-07T02:06:56;95416.56;;;13.74;100.00
75290;BME280;63883;48.996;20.804;2023-08-07T02:09:22;95421.75;;;13.58;100.00
75290;BME280;63883;48.996;20.804;2023-08-07T02:11:48;95418.31;;;13.44;100.00
75290;BME280;63883;48.996;20.804;2023-08-07T02:14:14;95419.59;;;13.37;100.00
75290;BME280;63883;48.996;20.804;2023-08-07T02:16:39;95416.47;;;13.32;100.00
75290;BME280;63883;48.996;20.804;2023-08-07T02:19:05;95436.06;;;13.33;100.00
75290;BME280;63883;48.996;20.804;2023-08-07T02:21:31;95424.66;;;13.22;100.00
75290;BME280;63883;48.996;20.804;2023-08-07T02:23:57;95437.81;;;13.16;100.00
75290;BME280;63883;48.996;20.804;2023-08-07T02:26:23;95431.69;;;13.19;100.00
75290;BME280;63883;48.996;20.804;2023-08-07T02:28:49;95436.56;;;13.23;100.00
75290;BME280;63883;48.996;20.804;2023-08-07T02:31:14;95436.72;;;13.20;100.00
75290;BME280;63883;48.996;20.804;2023-08-07T02:33:40;95436.38;;;13.26;100.00
75290;BME280;63883;48.996;20.804;2023-08-07T02:36:07;95441.91;;;13.35;100.00
75290;BME280;63883;48.996;20.804;2023-08-07T02:38:33;95449.72;;;13.17;100.00
75290;BME280;63883;48.996;20.804;2023-08-07T02:40:58;95440.59;;;13.12;100.00
75290;BME280;63883;48.996;20.804;2023-08-07T02:43:24;95445.88;;;13.09;100.00
75290;BME280;63883;48.996;20.804;2023-08-07T02:45:51;95451.66;;;13.12;100.00
75290;BME280;63883;48.996;20.804;2023-08-07T02:48:17;95457.56;;;13.14;100.00
75290;BME280;63883;48.996;20.804;2023-08-07T02:50:43;95458.31;;;13.16;100.00
75290;BME280;63883;48.996;20.804;2023-08-07T02:53:09;95455.31;;;13.08;100.00
75290;BME280;63883;48.996;20.804;2023-08-07T02:55:35;95456.69;;;12.98;100.00
75290;BME280;63883;48.996;20.804;2023-08-07T02:58:01;95453.25;;;12.99;100.00
75290;BME280;63883;48.996;20.804;2023-08-07T03:00:26;95459.84;;;13.03;100.00
75290;BME280;63883;48.996;20.804;2023-08-07T03:02:52;95457.38;;;13.02;100.00
75290;BME280;63883;48.996;20.804;2023-08-07T03:05:18;95460.16;;;12.97;100.00
75290;BME280;63883;48.996;20.804;2023-08-07T03:07:43;95459.38;;;12.97;100.00
75290;BME280;63883;48.996;20.804;2023-08-07T03:10:09;95462.50;;;13.02;100.00
75290;BME280;63883;48.996;20.804;2023-08-07T03:12:35;95464.38;;;12.98;100.00
75290;BME280;63883;48.996;20.804;2023-08-07T03:15:00;95470.25;;;13.00;100.00
75290;BME280;63883;48.996;20.804;2023-08-07T03:17:26;95470.75;;;13.07;100.00
75290;BME280;63883;48.996;20.804;2023-08-07T03:19:51;95477.44;;;13.09;100.00
75290;BME280;63883;48.996;20.804;2023-08-07T03:22:17;95469.53;;;13.14;100.00
75290;BME280;63883;48.996;20.804;2023-08-07T03:24:46;95479.34;;;13.21;100.00
75290;BME280;63883;48.996;20.804;2023-08-07T03:27:13;95485.03;;;13.26;100.00
75290;BME280;63883;48.996;20.804;2023-08-07T03:29:39;95477.84;;;13.33;100.00
75290;BME280;63883;48.996;20.804;2023-08-07T03:32:05;95476.22;;;13.32;100.00
75290;BME280;63883;48.996;20.804;2023-08-07T03:34:30;95486.53;;;13.31;100.00
75290;BME280;63883;48.996;20.804;2023-08-07T03:36:56;95484.72;;;13.33;100.00
75290;BME280;63883;48.996;20.804;2023-08-07T03:39:24;95478.66;;;13.34;100.00
75290;BME280;63883;48.996;20.804;2023-08-07T03:41:50;95486.44;;;13.32;100.00
75290;BME280;63883;48.996;20.804;2023-08-07T03:44:16;95477.19;;;13.29;100.00
75290;BME280;63883;48.996;20.804;2023-08-07T03:46:42;95484.31;;;13.24;100.00
75290;BME280;63883;48.996;20.804;2023-08-07T03:49:07;95487.38;;;13.15;100.00
75290;BME280;63883;48.996;20.804;2023-08-07T03:51:33;95489.41;;;13.09;100.00
75290;BME280;63883;48.996;20.804;2023-08-07T03:53:59;95491.75;;;13.13;100.00
75290;BME280;63883;48.996;20.804;2023-08-07T03:56:25;95500.41;;;13.26;100.00
75290;BME280;63883;48.996;20.804;2023-08-07T03:58:50;95494.22;;;13.31;100.00
75290;BME280;63883;48.996;20.804;2023-08-07T04:01:17;95503.63;;;13.30;100.00
75290;BME280;63883;48.996;20.804;2023-08-07T04:03:42;95501.81;;;13.32;100.00
75290;BME280;63883;48.996;20.804;2023-08-07T04:06:08;95509.06;;;13.40;100.00
75290;BME280;63883;48.996;20.804;2023-08-07T04:08:36;95503.97;;;13.40;100.00
75290;BME280;63883;48.996;20.804;2023-08-07T04:11:05;95513.78;;;13.32;100.00
75290;BME280;63883;48.996;20.804;2023-08-07T04:13:31;95518.91;;;13.32;100.00
75290;BME280;63883;48.996;20.804;2023-08-07T04:15:57;95522.03;;;13.37;100.00
75290;BME280;63883;48.996;20.804;2023-08-07T04:18:23;95515.59;;;13.29;100.00
75290;BME280;63883;48.996;20.804;2023-08-07T04:20:51;95508.97;;;13.25;100.00
75290;BME280;63883;48.996;20.804;2023-08-07T04:23:17;95513.03;;;13.29;100.00
75290;BME280;63883;48.996;20.804;2023-08-07T04:25:44;95517.81;;;13.36;100.00
75290;BME280;63883;48.996;20.804;2023-08-07T04:28:09;95514.19;;;13.40;100.00
75290;BME280;63883;48.996;20.804;2023-08-07T04:30:35;95517.31;;;13.45;100.00
75290;BME280;63883;48.996;20.804;2023-08-07T04:33:01;95515.50;;;13.47;100.00
75290;BME280;63883;48.996;20.804;2023-08-07T04:35:28;95516.75;;;13.40;100.00
75290;BME280;63883;48.996;20.804;2023-08-07T04:37:53;95513.84;;;13.46;100.00
75290;BME280;63883;48.996;20.804;2023-08-07T04:40:19;95520.28;;;13.53;100.00
75290;BME280;63883;48.996;20.804;2023-08-07T04:42:45;95514.81;;;13.59;100.00
75290;BME280;63883;48.996;20.804;2023-08-07T04:45:10;95512.25;;;13.59;100.00
75290;BME280;63883;48.996;20.804;2023-08-07T04:47:36;95513.25;;;13.56;100.00
75290;BME280;63883;48.996;20.804;2023-08-07T04:50:02;95513.16;;;13.58;100.00
75290;BME280;63883;48.996;20.804;2023-08-07T04:52:28;95516.47;;;13.60;100.00
75290;BME280;63883;48.996;20.804;2023-08-07T04:54:53;95523.41;;;13.58;100.00
75290;BME280;63883;48.996;20.804;2023-08-07T04:57:19;95528.69;;;13.55;100.00
75290;BME280;63883;48.996;20.804;2023-08-07T04:59:45;95522.25;;;13.48;100.00
75290;BME280;63883;48.996;20.804;2023-08-07T05:02:10;95522.25;;;13.48;100.00
75290;BME280;63883;48.996;20.804;2023-08-07T05:04:36;95525.75;;;13.47;100.00
75290;BME280;63883;48.996;20.804;2023-08-07T05:07:02;95520.63;;;13.47;100.00
75290;BME280;63883;48.996;20.804;2023-08-07T05:09:29;95518.06;;;13.47;100.00
75290;BME280;63883;48.996;20.804;2023-08-07T05:11:54;95529.72;;;13.52;100.00
75290;BME280;63883;48.996;20.804;2023-08-07T05:14:20;95537.03;;;13.58;100.00
75290;BME280;63883;48.996;20.804;2023-08-07T05:16:46;95524.56;;;13.68;100.00
75290;BME280;63883;48.996;20.804;2023-08-07T05:19:12;95531.75;;;13.91;100.00
75290;BME280;63883;48.996;20.804;2023-08-07T05:21:37;95535.81;;;14.10;100.00
75290;BME280;63883;48.996;20.804;2023-08-07T05:24:03;95535.03;;;14.23;100.00
75290;BME280;63883;48.996;20.804;2023-08-07T05:26:30;95538.47;;;14.38;100.00
75290;BME280;63883;48.996;20.804;2023-08-07T05:28:56;95534.16;;;14.53;100.00
75290;BME280;63883;48.996;20.804;2023-08-07T05:31:25;95531.22;;;14.73;100.00
75290;BME280;63883;48.996;20.804;2023-08-07T05:33:50;95528.91;;;14.97;97.42
75290;BME280;63883;48.996;20.804;2023-08-07T05:36:16;95524.53;;;15.26;95.37
75290;BME280;63883;48.996;20.804;2023-08-07T05:38:42;95533.81;;;15.14;94.26
75290;BME280;63883;48.996;20.804;2023-08-07T05:41:09;95535.94;;;15.07;94.58
75290;BME280;63883;48.996;20.804;2023-08-07T05:43:35;95540.50;;;15.16;95.97
75290;BME280;63883;48.996;20.804;2023-08-07T05:46:00;95545.50;;;15.05;93.29
75290;BME280;63883;48.996;20.804;2023-08-07T05:48:26;95543.03;;;15.04;93.53
75290;BME280;63883;48.996;20.804;2023-08-07T05:50:52;95550.91;;;15.01;94.83
75290;BME280;63883;48.996;20.804;2023-08-07T05:53:19;95538.03;;;15.15;94.57
75290;BME280;63883;48.996;20.804;2023-08-07T05:55:45;95546.03;;;15.10;92.77
75290;BME280;63883;48.996;20.804;2023-08-07T05:58:10;95547.34;;;15.30;93.99
75290;BME280;63883;48.996;20.804;2023-08-07T06:00:36;95548.97;;;15.45;92.46
75290;BME280;63883;48.996;20.804;2023-08-07T06:03:02;95545.09;;;15.52;92.34
75290;BME280;63883;48.996;20.804;2023-08-07T06:05:28;95543.38;;;15.53;92.53
75290;BME280;63883;48.996;20.804;2023-08-07T06:07:54;95553.69;;;15.66;93.76
75290;BME280;63883;48.996;20.804;2023-08-07T06:10:19;95551.06;;;15.80;91.57
75290;BME280;63883;48.996;20.804;2023-08-07T06:12:45;95561.78;;;15.86;89.60
75290;BME280;63883;48.996;20.804;2023-08-07T06:15:11;95565.72;;;15.92;88.99
75290;BME280;63883;48.996;20.804;2023-08-07T06:17:36;95555.75;;;16.00;88.88
75290;BME280;63883;48.996;20.804;2023-08-07T06:20:07;95553.06;;;15.89;90.22
75290;BME280;63883;48.996;20.804;2023-08-07T06:22:34;95557.13;;;15.79;89.44
75290;BME280;63883;48.996;20.804;2023-08-07T06:25:00;95563.41;;;15.75;89.16
75290;BME280;63883;48.996;20.804;2023-08-07T06:27:26;95557.34;;;15.76;89.04
75290;BME280;63883;48.996;20.804;2023-08-07T06:29:52;95560.13;;;15.85;88.18
75290;BME280;63883;48.996;20.804;2023-08-07T06:32:17;95552.63;;;15.82;88.82
75290;BME280;63883;48.996;20.804;2023-08-07T06:34:44;95562.81;;;15.84;88.70
75290;BME280;63883;48.996;20.804;2023-08-07T06:37:09;95565.34;;;15.98;87.73
75290;BME280;63883;48.996;20.804;2023-08-07T06:39:35;95565.94;;;16.01;87.92
75290;BME280;63883;48.996;20.804;2023-08-07T06:42:01;95574.31;;;16.05;87.90
75290;BME280;63883;48.996;20.804;2023-08-07T06:44:29;95573.97;;;15.97;88.20
75290;BME280;63883;48.996;20.804;2023-08-07T06:46:55;95575.63;;;15.98;88.51
75290;BME280;63883;48.996;20.804;2023-08-07T06:49:21;95573.88;;;15.98;88.17
75290;BME280;63883;48.996;20.804;2023-08-07T06:51:47;95574.56;;;16.00;89.22
75290;BME280;63883;48.996;20.804;2023-08-07T06:54:12;95570.25;;;16.01;89.57
75290;BME280;63883;48.996;20.804;2023-08-07T06:56:38;95577.72;;;16.18;89.32
75290;BME280;63883;48.996;20.804;2023-08-07T06:59:06;95571.97;;;16.27;89.26
75290;BME280;63883;48.996;20.804;2023-08-07T07:01:32;95571.16;;;16.39;86.28
75290;BME280;63883;48.996;20.804;2023-08-07T07:03:57;95574.13;;;16.59;86.89
75290;BME280;63883;48.996;20.804;2023-08-07T07:06:23;95572.41;;;16.72;86.62
75290;BME280;63883;48.996;20.804;2023-08-07T07:08:51;95581.47;;;16.90;81.46
75290;BME280;63883;48.996;20.804;2023-08-07T07:11:20;95576.63;;;16.98;79.91
75290;BME280;63883;48.996;20.804;2023-08-07T07:13:47;95577.94;;;17.16;80.32
75290;BME280;63883;48.996;20.804;2023-08-07T07:16:13;95579.97;;;17.24;79.07
75290;BME280;63883;48.996;20.804;2023-08-07T07:18:39;95581.19;;;17.31;78.99
75290;BME280;63883;48.996;20.804;2023-08-07T07:21:05;95583.97;;;17.41;79.64
75290;BME280;63883;48.996;20.804;2023-08-07T07:23:30;95586.25;;;17.69;74.80
75290;BME280;63883;48.996;20.804;2023-08-07T07:25:56;95591.81;;;18.00;73.88
75290;BME280;63883;48.996;20.804;2023-08-07T07:28:22;95584.50;;;17.93;72.80
75290;BME280;63883;48.996;20.804;2023-08-07T07:30:51;95589.72;;;18.16;71.19
75290;BME280;63883;48.996;20.804;2023-08-07T07:33:17;95599.19;;;18.28;66.73
75290;BME280;63883;48.996;20.804;2023-08-07T07:35:43;95589.78;;;18.27;68.47
75290;BME280;63883;48.996;20.804;2023-08-07T07:38:09;95599.94;;;18.52;66.85
75290;BME280;63883;48.996;20.804;2023-08-07T07:40:36;95600.00;;;18.63;66.68
75290;BME280;63883;48.996;20.804;2023-08-07T07:43:02;95603.91;;;18.45;67.15
75290;BME280;63883;48.996;20.804;2023-08-07T07:45:28;95603.53;;;18.73;66.68
75290;BME280;63883;48.996;20.804;2023-08-07T07:47:53;95608.94;;;18.70;66.31
75290;BME280;63883;48.996;20.804;2023-08-07T07:50:19;95607.28;;;18.69;67.09
75290;BME280;63883;48.996;20.804;2023-08-07T07:52:44;95605.75;;;18.67;68.58
75290;BME280;63883;48.996;20.804;2023-08-07T07:55:10;95612.47;;;18.69;67.62
75290;BME280;63883;48.996;20.804;2023-08-07T07:57:37;95602.38;;;19.11;66.14
75290;BME280;63883;48.996;20.804;2023-08-07T08:00:03;95596.97;;;19.25;67.80
75290;BME280;63883;48.996;20.804;2023-08-07T08:02:33;95594.06;;;19.30;67.09
75290;BME280;63883;48.996;20.804;2023-08-07T08:04:58;95599.44;;;19.27;68.77
75290;BME280;63883;48.996;20.804;2023-08-07T08:07:24;95609.91;;;19.36;66.46
75290;BME280;63883;48.996;20.804;2023-08-07T08:09:50;95607.91;;;19.62;65.56
75290;BME280;63883;48.996;20.804;2023-08-07T08:12:17;95605.63;;;19.80;64.60
75290;BME280;63883;48.996;20.804;2023-08-07T08:14:43;95604.97;;;19.56;64.83
75290;BME280;63883;48.996;20.804;2023-08-07T08:17:08;95608.97;;;19.37;64.86
75290;BME280;63883;48.996;20.804;2023-08-07T08:19:34;95610.97;;;19.34;64.73
75290;BME280;63883;48.996;20.804;2023-08-07T08:22:00;95616.25;;;19.43;64.85
75290;BME280;63883;48.996;20.804;2023-08-07T08:24:26;95606.47;;;19.69;64.32
75290;BME280;63883;48.996;20.804;2023-08-07T08:26:52;95609.38;;;19.87;64.95
75290;BME280;63883;48.996;20.804;2023-08-07T08:29:18;95610.75;;;19.48;63.99
75290;BME280;63883;48.996;20.804;2023-08-07T08:31:43;95608.56;;;19.86;64.53
75290;BME280;63883;48.996;20.804;2023-08-07T08:34:09;95602.06;;;20.24;64.63
75290;BME280;63883;48.996;20.804;2023-08-07T08:36:34;95602.75;;;20.26;63.26
75290;BME280;63883;48.996;20.804;2023-08-07T08:39:00;95598.38;;;20.26;61.53
75290;BME280;63883;48.996;20.804;2023-08-07T08:41:26;95600.19;;;19.94;62.67
75290;BME280;63883;48.996;20.804;2023-08-07T08:43:54;95601.91;;;20.25;61.52
75290;BME280;63883;48.996;20.804;2023-08-07T08:46:20;95587.13;;;20.48;60.27
75290;BME280;63883;48.996;20.804;2023-08-07T08:48:50;95591.66;;;20.56;60.22
75290;BME280;63883;48.996;20.804;2023-08-07T08:51:16;95591.59;;;20.46;60.23
75290;BME280;63883;48.996;20.804;2023-08-07T08:53:45;95595.78;;;20.58;59.59
75290;BME280;63883;48.996;20.804;2023-08-07T08:56:12;95598.03;;;20.31;59.53
75290;BME280;63883;48.996;20.804;2023-08-07T08:58:38;95596.72;;;20.05;61.94
75290;BME280;63883;48.996;20.804;2023-08-07T09:01:04;95599.03;;;19.87;63.14
75290;BME280;63883;48.996;20.804;2023-08-07T09:03:31;95595.75;;;19.74;64.02
75290;BME280;63883;48.996;20.804;2023-08-07T09:05:58;95598.66;;;19.92;63.80
75290;BME280;63883;48.996;20.804;2023-08-07T09:08:26;95601.47;;;19.88;63.88
75290;BME280;63883;48.996;20.804;2023-08-07T09:10:54;95595.16;;;20.13;63.96
75290;BME280;63883;48.996;20.804;2023-08-07T09:13:23;95595.78;;;20.26;64.72
75290;BME280;63883;48.996;20.804;2023-08-07T09:15:50;95588.56;;;20.41;63.80
75290;BME280;63883;48.996;20.804;2023-08-07T09:18:17;95591.63;;;20.97;63.89
75290;BME280;63883;48.996;20.804;2023-08-07T09:20:43;95601.06;;;21.29;61.00
75290;BME280;63883;48.996;20.804;2023-08-07T09:23:09;95587.78;;;21.62;60.93
75290;BME280;63883;48.996;20.804;2023-08-07T09:25:35;95590.81;;;21.67;59.49
75290;BME280;63883;48.996;20.804;2023-08-07T09:28:02;95580.84;;;21.23;57.28
75290;BME280;63883;48.996;20.804;2023-08-07T09:30:30;95587.06;;;21.11;58.65
75290;BME280;63883;48.996;20.804;2023-08-07T09:32:57;95586.19;;;21.00;60.10
75290;BME280;63883;48.996;20.804;2023-08-07T09:35:23;95592.75;;;20.53;60.08
75290;BME280;63883;48.996;20.804;2023-08-07T09:37:50;95589.47;;;20.19;61.49
75290;BME280;63883;48.996;20.804;2023-08-07T09:40:15;95583.03;;;19.82;67.40
75290;BME280;63883;48.996;20.804;2023-08-07T09:42:42;95575.81;;;19.09;69.97
75290;BME280;63883;48.996;20.804;2023-08-07T09:47:46;95591.84;;;18.11;76.55
75290;BME280;63883;48.996;20.804;2023-08-07T09:50:16;95614.50;;;17.34;84.20
75290;BME280;63883;48.996;20.804;2023-08-07T09:52:47;95636.69;;;16.61;88.87
75290;BME280;63883;48.996;20.804;2023-08-07T09:55:13;95647.16;;;15.65;86.78
75290;BME280;63883;48.996;20.804;2023-08-07T09:57:44;95658.69;;;15.02;90.65
75290;BME280;63883;48.996;20.804;2023-08-07T10:00:12;95645.28;;;14.83;92.60
75290;BME280;63883;48.996;20.804;2023-08-07T10:02:38;95655.91;;;14.77;96.37
75290;BME280;63883;48.996;20.804;2023-08-07T10:05:06;95659.88;;;14.97;97.58
75290;BME280;63883;48.996;20.804;2023-08-07T10:07:34;95667.00;;;15.20;98.17
75290;BME280;63883;48.996;20.804;2023-08-07T10:10:00;95671.69;;;15.28;97.55
75290;BME280;63883;48.996;20.804;2023-08-07T10:12:26;95667.38;;;15.42;98.57
75290;BME280;63883;48.996;20.804;2023-08-07T10:14:53;95667.75;;;15.65;97.34
75290;BME280;63883;48.996;20.804;2023-08-07T10:17:23;95666.41;;;15.86;96.49
75290;BME280;63883;48.996;20.804;2023-08-07T10:19:51;95655.59;;;16.60;87.36
75290;BME280;63883;48.996;20.804;2023-08-07T10:22:19;95645.50;;;18.53;79.82
75290;BME280;63883;48.996;20.804;2023-08-07T10:24:48;95639.50;;;19.88;78.89
75290;BME280;63883;48.996;20.804;2023-08-07T10:27:16;95636.72;;;20.85;72.20
75290;BME280;63883;48.996;20.804;2023-08-07T10:29:43;95645.63;;;21.83;69.80
75290;BME280;63883;48.996;20.804;2023-08-07T10:32:12;95651.81;;;20.39;74.01
75290;BME280;63883;48.996;20.804;2023-08-07T10:34:38;95658.56;;;19.31;75.25
75290;BME280;63883;48.996;20.804;2023-08-07T10:37:07;95667.91;;;18.18;77.09
75290;BME280;63883;48.996;20.804;2023-08-07T10:39:33;95673.34;;;17.66;80.63
75290;BME280;63883;48.996;20.804;2023-08-07T10:41:59;95664.31;;;17.09;77.44
75290;BME280;63883;48.996;20.804;2023-08-07T10:44:30;95667.81;;;16.83;85.17
75290;BME280;63883;48.996;20.804;2023-08-07T10:46:57;95666.78;;;16.73;81.83
75290;BME280;63883;48.996;20.804;2023-08-07T10:49:49;95668.66;;;16.71;86.57
75290;BME280;63883;48.996;20.804;2023-08-07T10:52:15;95662.25;;;16.76;86.13
75290;BME280;63883;48.996;20.804;2023-08-07T10:54:46;95668.94;;;16.79;85.60
75290;BME280;63883;48.996;20.804;2023-08-07T10:57:13;95668.00;;;16.80;88.01
75290;BME280;63883;48.996;20.804;2023-08-07T11:02:26;95669.81;;;18.27;78.36
75290;BME280;63883;48.996;20.804;2023-08-07T11:04:53;95670.53;;;19.99;71.47
75290;BME280;63883;48.996;20.804;2023-08-07T11:07:30;95657.91;;;20.17;68.80
75290;BME280;63883;48.996;20.804;2023-08-07T11:09:57;95659.44;;;20.72;68.10
75290;BME280;63883;48.996;20.804;2023-08-07T11:12:26;95657.06;;;20.48;73.38
75290;BME280;63883;48.996;20.804;2023-08-07T11:14:53;95643.94;;;22.03;67.74
75290;BME280;63883;48.996;20.804;2023-08-07T11:17:27;95652.69;;;22.50;62.33
75290;BME280;63883;48.996;20.804;2023-08-07T11:19:55;95639.09;;;21.39;67.40
75290;BME280;63883;48.996;20.804;2023-08-07T11:22:21;95650.44;;;20.76;66.24
75290;BME280;63883;48.996;20.804;2023-08-07T11:24:47;95665.38;;;19.88;61.62
75290;BME280;63883;48.996;20.804;2023-08-07T11:27:13;95663.97;;;19.39;63.63
75290;BME280;63883;48.996;20.804;2023-08-07T11:29:38;95668.13;;;18.73;66.13
75290;BME280;63883;48.996;20.804;2023-08-07T11:32:05;95675.50;;;18.67;69.71
75290;BME280;63883;48.996;20.804;2023-08-07T11:34:31;95674.19;;;18.61;69.75
75290;BME280;63883;48.996;20.804;2023-08-07T11:36:57;95690.78;;;18.46;70.77
75290;BME280;63883;48.996;20.804;2023-08-07T11:39:23;95686.81;;;18.53;73.91
75290;BME280;63883;48.996;20.804;2023-08-07T11:41:50;95685.63;;;19.16;67.64
75290;BME280;63883;48.996;20.804;2023-08-07T11:44:18;95692.91;;;19.67;65.81
75290;BME280;63883;48.996;20.804;2023-08-07T11:46:44;95701.13;;;19.38;67.48
75290;BME280;63883;48.996;20.804;2023-08-07T11:49:10;95701.56;;;19.10;68.62
75290;BME280;63883;48.996;20.804;2023-08-07T11:51:36;95705.44;;;18.93;68.36
75290;BME280;63883;48.996;20.804;2023-08-07T11:54:02;95703.16;;;18.54;69.24
75290;BME280;63883;48.996;20.804;2023-08-07T11:56:29;95702.91;;;18.22;71.53
75290;BME280;63883;48.996;20.804;2023-08-07T11:58:54;95705.19;;;18.14;75.42
75290;BME280;63883;48.996;20.804;2023-08-07T12:01:23;95705.47;;;17.98;73.12
75290;BME280;63883;48.996;20.804;2023-08-07T12:06:15;95700.16;;;17.76;74.32
75290;BME280;63883;48.996;20.804;2023-08-07T12:08:41;95696.44;;;17.67;74.59
75290;BME280;63883;48.996;20.804;2023-08-07T12:11:09;95693.16;;;17.65;74.55
75290;BME280;63883;48.996;20.804;2023-08-07T12:13:43;95685.13;;;17.57;70.95
75290;BME280;63883;48.996;20.804;2023-08-07T12:16:10;95690.06;;;17.47;73.99
75290;BME280;63883;48.996;20.804;2023-08-07T12:18:44;95686.34;;;17.39;77.80
75290;BME280;63883;48.996;20.804;2023-08-07T12:21:13;95701.44;;;17.32;79.47
75290;BME280;63883;48.996;20.804;2023-08-07T12:23:40;95701.53;;;17.18;78.09
75290;BME280;63883;48.996;20.804;2023-08-07T12:26:06;95703.47;;;16.89;79.95
75290;BME280;63883;48.996;20.804;2023-08-07T12:28:35;95707.28;;;16.71;82.46
75290;BME280;63883;48.996;20.804;2023-08-07T12:31:01;95709.13;;;16.69;84.54
75290;BME280;63883;48.996;20.804;2023-08-07T12:33:28;95715.94;;;16.70;82.91
75290;BME280;63883;48.996;20.804;2023-08-07T12:35:54;95719.03;;;16.75;82.86
75290;BME280;63883;48.996;20.804;2023-08-07T12:38:20;95722.09;;;16.80;84.56
75290;BME280;63883;48.996;20.804;2023-08-07T12:40:46;95724.09;;;16.89;83.65
75290;BME280;63883;48.996;20.804;2023-08-07T12:43:12;95727.72;;;16.99;83.78
75290;BME280;63883;48.996;20.804;2023-08-07T12:45:38;95744.19;;;17.22;82.92
75290;BME280;63883;48.996;20.804;2023-08-07T12:48:04;95739.97;;;17.46;81.22
75290;BME280;63883;48.996;20.804;2023-08-07T12:50:29;95744.19;;;17.60;78.90
75290;BME280;63883;48.996;20.804;2023-08-07T12:52:55;95733.06;;;17.85;77.84